sensor_id;sensor_type;location;lat;lon;timestamp;pressure;altitude;pressure_sealevel;temperature;humidity
30073;BME280;16897;52.422;13.678;2023-08-06T00:02:57;100464.63;;;21.50;51.00
30073;BME280;16897;52.422;13.678;2023-08-06T00:06:58;100472.28;;;21.53;51.27
30073;BME280;16897;52.422;13.678;2023-08-06T00:11:00;100449.59;;;21.33;51.06
30073;BME280;16897;52.422;13.678;2023-08-06T00:15:02;100435.31;;;21.26;51.45
30073;BME280;16897;52.422;13.678;2023-08-06T00:19:03;100456.97;;;21.39;51.21
30073;BME280;16897;52.422;13.678;2023-08-06T00:23:05;100452.31;;;21.41;51.26
30073;BME280;16897;52.422;13.678;2023-08-06T00:27:07;100462.31;;;21.47;51.13
30073;BME280;16897;52.422;13.678;2023-08-06T00:31:08;100457.81;;;21.48;51.33
30073;BME280;16897;52.422;13.678;2023-08-06T00:35:09;100441.84;;;21.39;51.41
30073;BME280;16897;52.422;13.678;2023-08-06T00:39:11;100446.38;;;21.47;51.23
30073;BME280;16897;52.422;13.678;2023-08-06T00:43:13;100422.03;;;21.26;51.35
30073;BME280;16897;52.422;13.678;2023-08-06T00:47:14;100432.66;;;21.26;51.50
30073;BME280;16897;52.422;13.678;2023-08-06T00:51:16;100440.78;;;21.24;51.55
30073;BME280;16897;52.422;13.678;2023-08-06T00:55:18;100407.81;;;21.00;51.66
30073;BME280;16897;52.422;13.678;2023-08-06T00:59:20;100433.25;;;21.11;51.50
30073;BME280;16897;52.422;13.678;2023-08-06T01:03:22;100444.22;;;21.16;51.43
30073;BME280;16897;52.422;13.678;2023-08-06T01:12:08;100445.38;;;21.14;51.81
30073;BME280;16897;52.422;13.678;2023-08-06T01:16:13;100434.91;;;21.04;51.55
30073;BME280;16897;52.422;13.678;2023-08-06T01:20:16;100428.59;;;21.05;51.65
30073;BME280;16897;52.422;13.678;2023-08-06T01:24:18;100414.97;;;21.00;51.83
30073;BME280;16897;52.422;13.678;2023-08-06T01:32:44;100419.91;;;20.95;51.98
30073;BME280;16897;52.422;13.678;2023-08-06T01:36:47;100417.44;;;20.93;51.87
30073;BME280;16897;52.422;13.678;2023-08-06T01:40:49;100406.09;;;20.83;51.88
30073;BME280;16897;52.422;13.678;2023-08-06T01:44:50;100393.47;;;20.77;51.88
30073;BME280;16897;52.422;13.678;2023-08-06T01:48:52;100399.16;;;20.82;51.66
30073;BME280;16897;52.422;13.678;2023-08-06T01:52:53;100392.97;;;20.82;51.73
30073;BME280;16897;52.422;13.678;2023-08-06T01:56:55;100376.06;;;20.74;52.16
30073;BME280;16897;52.422;13.678;2023-08-06T02:00:56;100374.38;;;20.73;51.88
30073;BME280;16897;52.422;13.678;2023-08-06T02:04:59;100376.66;;;20.68;51.75
30073;BME280;16897;52.422;13.678;2023-08-06T02:09:00;100367.53;;;20.63;52.03
30073;BME280;16897;52.422;13.678;2023-08-06T02:13:02;100375.84;;;20.68;52.06
30073;BME280;16897;52.422;13.678;2023-08-06T02:17:04;100373.03;;;20.69;51.99
30073;BME280;16897;52.422;13.678;2023-08-06T02:21:05;100333.78;;;20.47;52.04
30073;BME280;16897;52.422;13.678;2023-08-06T02:25:07;100341.97;;;20.53;52.13
30073;BME280;16897;52.422;13.678;2023-08-06T02:29:09;100308.84;;;20.31;52.00
30073;BME280;16897;52.422;13.678;2023-08-06T02:33:10;100360.72;;;20.60;52.08
30073;BME280;16897;52.422;13.678;2023-08-06T02:37:12;100337.41;;;20.46;52.16
30073;BME280;16897;52.422;13.678;2023-08-06T02:41:13;100344.47;;;20.55;52.13
30073;BME280;16897;52.422;13.678;2023-08-06T02:45:15;100344.53;;;20.45;52.11
30073;BME280;16897;52.422;13.678;2023-08-06T02:49:17;100342.91;;;20.52;52.14
30073;BME280;16897;52.422;13.678;2023-08-06T02:53:18;100346.72;;;20.50;52.38
30073;BME280;16897;52.422;13.678;2023-08-06T02:57:22;100333.09;;;20.45;52.48
30073;BME280;16897;52.422;13.678;2023-08-06T03:01:27;100320.94;;;20.34;52.20
30073;BME280;16897;52.422;13.678;2023-08-06T03:05:35;100336.91;;;20.42;52.05
30073;BME280;16897;52.422;13.678;2023-08-06T03:09:37;100332.56;;;20.41;52.08
30073;BME280;16897;52.422;13.678;2023-08-06T03:13:39;100288.34;;;20.16;52.37
30073;BME280;16897;52.422;13.678;2023-08-06T03:17:41;100316.81;;;20.40;52.42
30073;BME280;16897;52.422;13.678;2023-08-06T03:21:44;100295.25;;;20.34;52.47
30073;BME280;16897;52.422;13.678;2023-08-06T03:25:45;100293.78;;;20.40;52.57
30073;BME280;16897;52.422;13.678;2023-08-06T03:29:49;100291.47;;;20.45;52.29
30073;BME280;16897;52.422;13.678;2023-08-06T03:33:54;100280.66;;;20.39;52.22
30073;BME280;16897;52.422;13.678;2023-08-06T03:38:00;100278.69;;;20.41;52.46
30073;BME280;16897;52.422;13.678;2023-08-06T03:42:03;100272.53;;;20.32;52.77
30073;BME280;16897;52.422;13.678;2023-08-06T03:46:05;100274.34;;;20.31;52.70
30073;BME280;16897;52.422;13.678;2023-08-06T03:50:07;100279.81;;;20.30;52.46
30073;BME280;16897;52.422;13.678;2023-08-06T03:54:09;100275.50;;;20.29;52.60
30073;BME280;16897;52.422;13.678;2023-08-06T03:58:11;100230.78;;;20.00;52.62
30073;BME280;16897;52.422;13.678;2023-08-06T04:02:12;100250.09;;;20.18;52.84
30073;BME280;16897;52.422;13.678;2023-08-06T04:06:14;100226.53;;;20.07;52.85
30073;BME280;16897;52.422;13.678;2023-08-06T04:10:15;100250.25;;;20.17;52.84
30073;BME280;16897;52.422;13.678;2023-08-06T04:14:17;100241.63;;;20.15;52.45
30073;BME280;16897;52.422;13.678;2023-08-06T04:18:18;100241.44;;;20.08;52.79
30073;BME280;16897;52.422;13.678;2023-08-06T04:22:20;100216.53;;;20.01;52.85
30073;BME280;16897;52.422;13.678;2023-08-06T04:26:22;100178.16;;;19.79;52.68
30073;BME280;16897;52.422;13.678;2023-08-06T04:30:24;100215.56;;;20.02;52.60
30073;BME280;16897;52.422;13.678;2023-08-06T04:34:26;100205.75;;;19.94;52.78
30073;BME280;16897;52.422;13.678;2023-08-06T04:38:28;100166.41;;;19.81;53.08
30073;BME280;16897;52.422;13.678;2023-08-06T04:42:30;100206.13;;;20.07;52.95
30073;BME280;16897;52.422;13.678;2023-08-06T04:46:32;100197.69;;;20.04;52.91
30073;BME280;16897;52.422;13.678;2023-08-06T04:50:34;100186.72;;;19.99;52.70
30073;BME280;16897;52.422;13.678;2023-08-06T04:54:36;100196.22;;;20.09;53.20
30073;BME280;16897;52.422;13.678;2023-08-06T04:58:37;100198.38;;;20.14;53.22
30073;BME280;16897;52.422;13.678;2023-08-06T05:02:39;100173.81;;;20.04;52.84
30073;BME280;16897;52.422;13.678;2023-08-06T05:06:41;100199.53;;;20.20;53.28
30073;BME280;16897;52.422;13.678;2023-08-06T05:10:44;100198.25;;;20.24;52.87
30073;BME280;16897;52.422;13.678;2023-08-06T05:14:45;100190.16;;;20.25;53.11
30073;BME280;16897;52.422;13.678;2023-08-06T05:18:47;100161.59;;;20.19;53.15
30073;BME280;16897;52.422;13.678;2023-08-06T05:22:48;100175.06;;;20.26;53.12
30073;BME280;16897;52.422;13.678;2023-08-06T05:26:50;100179.34;;;20.27;53.31
30073;BME280;16897;52.422;13.678;2023-08-06T05:30:52;100183.66;;;20.28;53.46
30073;BME280;16897;52.422;13.678;2023-08-06T05:34:53;100163.91;;;20.22;53.17
30073;BME280;16897;52.422;13.678;2023-08-06T05:38:55;100163.44;;;20.19;53.31
30073;BME280;16897;52.422;13.678;2023-08-06T05:42:56;100161.13;;;20.24;53.52
30073;BME280;16897;52.422;13.678;2023-08-06T05:46:58;100146.34;;;20.13;53.46
30073;BME280;16897;52.422;13.678;2023-08-06T05:51:00;100170.41;;;20.28;53.30
30073;BME280;16897;52.422;13.678;2023-08-06T05:55:01;100133.22;;;20.11;53.21
30073;BME280;16897;52.422;13.678;2023-08-06T05:59:03;100139.25;;;20.22;53.50
30073;BME280;16897;52.422;13.678;2023-08-06T06:03:04;100156.34;;;20.36;53.18
30073;BME280;16897;52.422;13.678;2023-08-06T06:07:06;100147.41;;;20.37;53.48
30073;BME280;16897;52.422;13.678;2023-08-06T06:11:07;100150.06;;;20.37;53.43
30073;BME280;16897;52.422;13.678;2023-08-06T06:15:09;100142.75;;;20.39;53.21
30073;BME280;16897;52.422;13.678;2023-08-06T06:19:11;100141.94;;;20.38;53.28
30073;BME280;16897;52.422;13.678;2023-08-06T06:23:13;100126.19;;;20.28;53.59
30073;BME280;16897;52.422;13.678;2023-08-06T06:27:15;100133.81;;;20.40;53.48
30073;BME280;16897;52.422;13.678;2023-08-06T06:31:16;100122.88;;;20.34;53.78
30073;BME280;16897;52.422;13.678;2023-08-06T06:35:18;100128.03;;;20.44;53.61
30073;BME280;16897;52.422;13.678;2023-08-06T06:39:20;100127.19;;;20.44;53.37
30073;BME280;16897;52.422;13.678;2023-08-06T06:43:22;100084.06;;;20.17;53.48
30073;BME280;16897;52.422;13.678;2023-08-06T06:47:24;100125.88;;;20.48;53.58
30073;BME280;16897;52.422;13.678;2023-08-06T06:51:25;100118.06;;;20.46;53.75
30073;BME280;16897;52.422;13.678;2023-08-06T06:55:26;100118.41;;;20.43;53.46
30073;BME280;16897;52.422;13.678;2023-08-06T06:59:29;100111.25;;;20.36;53.59
30073;BME280;16897;52.422;13.678;2023-08-06T07:03:30;100126.34;;;20.43;53.99
30073;BME280;16897;52.422;13.678;2023-08-06T07:07:32;100122.56;;;20.46;53.86
30073;BME280;16897;52.422;13.678;2023-08-06T07:11:34;100106.97;;;20.34;53.81
30073;BME280;16897;52.422;13.678;2023-08-06T07:15:36;100125.38;;;20.44;53.69
30073;BME280;16897;52.422;13.678;2023-08-06T07:19:37;100115.25;;;20.40;54.03
30073;BME280;16897;52.422;13.678;2023-08-06T07:23:39;100091.03;;;20.26;54.00
30073;BME280;16897;52.422;13.678;2023-08-06T07:27:41;100118.41;;;20.43;54.06
30073;BME280;16897;52.422;13.678;2023-08-06T07:31:43;100125.06;;;20.47;53.73
30073;BME280;16897;52.422;13.678;2023-08-06T07:35:44;100124.88;;;20.49;53.92
30073;BME280;16897;52.422;13.678;2023-08-06T07:39:45;100106.97;;;20.43;54.03
30073;BME280;16897;52.422;13.678;2023-08-06T07:43:47;100116.91;;;20.49;53.99
30073;BME280;16897;52.422;13.678;2023-08-06T07:47:48;100109.63;;;20.51;53.96
30073;BME280;16897;52.422;13.678;2023-08-06T07:51:49;100078.94;;;20.32;53.98
30073;BME280;16897;52.422;13.678;2023-08-06T07:55:53;100096.84;;;20.46;54.29
30073;BME280;16897;52.422;13.678;2023-08-06T07:59:55;100118.63;;;20.58;54.21
30073;BME280;16897;52.422;13.678;2023-08-06T08:04:01;100124.28;;;20.63;53.98
30073;BME280;16897;52.422;13.678;2023-08-06T08:08:04;100073.50;;;20.42;54.35
30073;BME280;16897;52.422;13.678;2023-08-06T08:12:05;100112.16;;;20.69;54.16
30073;BME280;16897;52.422;13.678;2023-08-06T08:16:07;100118.13;;;20.71;54.34
30073;BME280;16897;52.422;13.678;2023-08-06T08:20:10;100049.44;;;20.35;54.32
30073;BME280;16897;52.422;13.678;2023-08-06T08:24:14;100056.09;;;20.47;54.34
30073;BME280;16897;52.422;13.678;2023-08-06T08:28:16;100052.66;;;20.55;54.28
30073;BME280;16897;52.422;13.678;2023-08-06T08:32:18;100040.34;;;20.54;53.94
30073;BME280;16897;52.422;13.678;2023-08-06T08:36:20;100052.47;;;20.65;54.25
30073;BME280;16897;52.422;13.678;2023-08-06T08:40:23;100060.59;;;20.80;54.04
30073;BME280;16897;52.422;13.678;2023-08-06T08:44:27;100047.00;;;20.74;54.37
30073;BME280;16897;52.422;13.678;2023-08-06T08:48:34;100002.25;;;20.55;53.94
30073;BME280;16897;52.422;13.678;2023-08-06T08:52:36;100053.25;;;20.98;54.44
30073;BME280;16897;52.422;13.678;2023-08-06T08:56:39;100050.59;;;20.98;54.36
30073;BME280;16897;52.422;13.678;2023-08-06T09:00:47;100010.66;;;20.75;54.36
30073;BME280;16897;52.422;13.678;2023-08-06T09:04:52;100018.44;;;20.76;54.43
30073;BME280;16897;52.422;13.678;2023-08-06T09:09:00;100031.72;;;20.93;54.58
30073;BME280;16897;52.422;13.678;2023-08-06T09:13:03;100029.06;;;20.93;54.45
30073;BME280;16897;52.422;13.678;2023-08-06T09:17:05;100027.53;;;20.98;54.19
30073;BME280;16897;52.422;13.678;2023-08-06T09:21:08;100005.81;;;20.87;54.61
30073;BME280;16897;52.422;13.678;2023-08-06T09:25:24;100028.69;;;21.04;54.63
30073;BME280;16897;52.422;13.678;2023-08-06T09:29:34;99995.84;;;20.97;54.41
30073;BME280;16897;52.422;13.678;2023-08-06T09:33:41;99963.72;;;20.75;54.43
30073;BME280;16897;52.422;13.678;2023-08-06T09:37:44;100009.75;;;21.07;54.39
30073;BME280;16897;52.422;13.678;2023-08-06T09:41:47;100004.44;;;21.07;54.80
30073;BME280;16897;52.422;13.678;2023-08-06T09:45:51;99970.66;;;20.93;54.25
30073;BME280;16897;52.422;13.678;2023-08-06T09:49:53;99999.28;;;21.14;54.78
30073;BME280;16897;52.422;13.678;2023-08-06T09:53:54;99996.47;;;21.15;54.80
30073;BME280;16897;52.422;13.678;2023-08-06T09:57:56;100003.72;;;21.21;54.66
30073;BME280;16897;52.422;13.678;2023-08-06T10:01:59;99987.47;;;21.16;54.78
30073;BME280;16897;52.422;13.678;2023-08-06T10:06:00;99950.38;;;21.00;54.64
30073;BME280;16897;52.422;13.678;2023-08-06T10:10:03;99960.50;;;21.05;54.85
30073;BME280;16897;52.422;13.678;2023-08-06T10:14:27;99988.94;;;21.27;54.78
30073;BME280;16897;52.422;13.678;2023-08-06T10:18:29;99956.97;;;21.12;54.93
30073;BME280;16897;52.422;13.678;2023-08-06T10:22:31;99980.00;;;21.28;54.95
30073;BME280;16897;52.422;13.678;2023-08-06T10:26:33;99949.50;;;21.16;54.73
30073;BME280;16897;52.422;13.678;2023-08-06T10:30:44;99977.66;;;21.33;54.83
30073;BME280;16897;52.422;13.678;2023-08-06T10:34:58;99972.50;;;21.32;54.63
30073;BME280;16897;52.422;13.678;2023-08-06T10:39:00;99963.41;;;21.26;54.68
30073;BME280;16897;52.422;13.678;2023-08-06T10:43:02;99961.22;;;21.30;54.54
30073;BME280;16897;52.422;13.678;2023-08-06T10:47:26;99962.03;;;21.30;54.84
30073;BME280;16897;52.422;13.678;2023-08-06T10:51:28;99959.06;;;21.25;54.63
30073;BME280;16897;52.422;13.678;2023-08-06T10:55:29;99961.41;;;21.28;54.86
30073;BME280;16897;52.422;13.678;2023-08-06T10:59:31;99945.16;;;21.23;54.73
30073;BME280;16897;52.422;13.678;2023-08-06T11:03:34;99941.00;;;21.20;54.81
30073;BME280;16897;52.422;13.678;2023-08-06T11:07:35;99928.72;;;21.19;55.07
30073;BME280;16897;52.422;13.678;2023-08-06T11:11:37;99933.34;;;21.26;55.02
30073;BME280;16897;52.422;13.678;2023-08-06T11:15:39;99927.38;;;21.24;54.77
30073;BME280;16897;52.422;13.678;2023-08-06T11:19:41;99916.28;;;21.20;55.15
30073;BME280;16897;52.422;13.678;2023-08-06T11:23:43;99921.41;;;21.21;55.08
30073;BME280;16897;52.422;13.678;2023-08-06T11:27:44;99927.34;;;21.32;54.76
30073;BME280;16897;52.422;13.678;2023-08-06T11:31:46;99911.09;;;21.27;54.73
30073;BME280;16897;52.422;13.678;2023-08-06T11:35:48;99909.94;;;21.29;55.25
30073;BME280;16897;52.422;13.678;2023-08-06T11:39:50;99907.94;;;21.31;54.92
30073;BME280;16897;52.422;13.678;2023-08-06T11:43:51;99905.28;;;21.31;54.71
30073;BME280;16897;52.422;13.678;2023-08-06T11:47:53;99901.78;;;21.31;55.12
30073;BME280;16897;52.422;13.678;2023-08-06T11:51:54;99893.81;;;21.31;54.81
30073;BME280;16897;52.422;13.678;2023-08-06T11:55:57;99884.53;;;21.27;55.02
30073;BME280;16897;52.422;13.678;2023-08-06T12:00:06;99876.22;;;21.30;54.73
30073;BME280;16897;52.422;13.678;2023-08-06T12:04:14;99868.78;;;21.25;54.97
30073;BME280;16897;52.422;13.678;2023-08-06T12:08:16;99874.88;;;21.34;54.93
30073;BME280;16897;52.422;13.678;2023-08-06T12:12:17;99869.22;;;21.37;55.20
30073;BME280;16897;52.422;13.678;2023-08-06T12:16:19;99865.06;;;21.34;55.11
30073;BME280;16897;52.422;13.678;2023-08-06T12:20:22;99879.00;;;21.45;55.18
30073;BME280;16897;52.422;13.678;2023-08-06T12:24:23;99869.84;;;21.47;55.34
30073;BME280;16897;52.422;13.678;2023-08-06T12:28:25;99882.47;;;21.45;55.16
30073;BME280;16897;52.422;13.678;2023-08-06T12:32:26;99875.50;;;21.44;54.88
30073;BME280;16897;52.422;13.678;2023-08-06T12:36:28;99871.38;;;21.41;55.09
30073;BME280;16897;52.422;13.678;2023-08-06T12:40:29;99878.81;;;21.46;55.20
30073;BME280;16897;52.422;13.678;2023-08-06T12:44:31;99835.56;;;21.29;55.17
30073;BME280;16897;52.422;13.678;2023-08-06T12:48:33;99858.91;;;21.42;55.43
30073;BME280;16897;52.422;13.678;2023-08-06T12:52:34;99855.44;;;21.41;55.09
30073;BME280;16897;52.422;13.678;2023-08-06T12:56:36;99870.97;;;21.53;55.10
30073;BME280;16897;52.422;13.678;2023-08-06T13:00:37;99876.91;;;21.55;55.43
30073;BME280;16897;52.422;13.678;2023-08-06T13:04:39;99873.78;;;21.51;55.30
30073;BME280;16897;52.422;13.678;2023-08-06T13:08:41;99870.97;;;21.53;55.16
30073;BME280;16897;52.422;13.678;2023-08-06T13:12:43;99858.88;;;21.50;55.46
30073;BME280;16897;52.422;13.678;2023-08-06T13:16:45;99881.72;;;21.59;55.43
30073;BME280;16897;52.422;13.678;2023-08-06T13:20:47;99876.38;;;21.59;55.09
30073;BME280;16897;52.422;13.678;2023-08-06T13:24:50;99866.84;;;21.50;55.53
30073;BME280;16897;52.422;13.678;2023-08-06T13:28:51;99870.41;;;21.57;55.34
30073;BME280;16897;52.422;13.678;2023-08-06T13:32:53;99859.69;;;21.51;55.40
30073;BME280;16897;52.422;13.678;2023-08-06T13:36:56;99850.25;;;21.48;55.51
30073;BME280;16897;52.422;13.678;2023-08-06T13:40:57;99863.63;;;21.55;55.36
30073;BME280;16897;52.422;13.678;2023-08-06T13:44:59;99860.66;;;21.58;55.54
30073;BME280;16897;52.422;13.678;2023-08-06T13:49:04;99853.25;;;21.45;55.42
30073;BME280;16897;52.422;13.678;2023-08-06T13:53:06;99870.25;;;21.59;55.21
30073;BME280;16897;52.422;13.678;2023-08-06T13:57:07;99870.91;;;21.61;55.54
30073;BME280;16897;52.422;13.678;2023-08-06T14:01:12;99870.25;;;21.59;55.61
30073;BME280;16897;52.422;13.678;2023-08-06T14:05:15;99853.66;;;21.57;55.37
30073;BME280;16897;52.422;13.678;2023-08-06T14:09:16;99849.88;;;21.51;55.49
30073;BME280;16897;52.422;13.678;2023-08-06T14:13:23;99861.28;;;21.60;55.43
30073;BME280;16897;52.422;13.678;2023-08-06T14:17:25;99849.53;;;21.54;55.46
30073;BME280;16897;52.422;13.678;2023-08-06T14:21:27;99865.59;;;21.61;55.28
30073;BME280;16897;52.422;13.678;2023-08-06T14:25:31;99861.63;;;21.57;55.58
30073;BME280;16897;52.422;13.678;2023-08-06T14:29:33;99856.00;;;21.52;55.46
30073;BME280;16897;52.422;13.678;2023-08-06T14:33:34;99840.97;;;21.36;55.46
30073;BME280;16897;52.422;13.678;2023-08-06T14:37:36;99863.16;;;21.51;55.30
30073;BME280;16897;52.422;13.678;2023-08-06T14:41:37;99816.38;;;21.19;55.70
30073;BME280;16897;52.422;13.678;2023-08-06T14:45:40;99861.53;;;21.50;55.41
30073;BME280;16897;52.422;13.678;2023-08-06T14:49:44;99854.72;;;21.48;55.51
30073;BME280;16897;52.422;13.678;2023-08-06T14:53:46;99863.53;;;21.48;55.51
30073;BME280;16897;52.422;13.678;2023-08-06T14:57:48;99869.50;;;21.50;55.57
30073;BME280;16897;52.422;13.678;2023-08-06T15:01:49;99871.84;;;21.45;55.51
30073;BME280;16897;52.422;13.678;2023-08-06T15:05:52;99851.13;;;21.32;55.64
30073;BME280;16897;52.422;13.678;2023-08-06T15:09:53;99870.38;;;21.42;55.73
30073;BME280;16897;52.422;13.678;2023-08-06T15:13:56;99869.56;;;21.42;55.46
30073;BME280;16897;52.422;13.678;2023-08-06T15:18:01;99865.22;;;21.41;55.47
30073;BME280;16897;52.422;13.678;2023-08-06T15:22:11;99867.53;;;21.44;55.49
30073;BME280;16897;52.422;13.678;2023-08-06T15:26:16;99786.19;;;20.89;55.43
30073;BME280;16897;52.422;13.678;2023-08-06T15:30:24;99819.56;;;21.14;55.44
30073;BME280;16897;52.422;13.678;2023-08-06T15:34:28;99862.91;;;21.38;55.65
30073;BME280;16897;52.422;13.678;2023-08-06T15:38:33;99867.53;;;21.44;55.44
30073;BME280;16897;52.422;13.678;2023-08-06T15:42:40;99876.81;;;21.48;55.69
30073;BME280;16897;52.422;13.678;2023-08-06T15:46:42;99866.53;;;21.45;55.51
30073;BME280;16897;52.422;13.678;2023-08-06T15:50:46;99879.47;;;21.48;55.67
30073;BME280;16897;52.422;13.678;2023-08-06T15:54:49;99793.34;;;20.88;55.54
30073;BME280;16897;52.422;13.678;2023-08-06T15:58:55;99836.19;;;21.08;55.37
30073;BME280;16897;52.422;13.678;2023-08-06T16:03:29;99887.47;;;21.40;55.76
30073;BME280;16897;52.422;13.678;2023-08-06T16:07:31;99861.34;;;21.20;55.35
30073;BME280;16897;52.422;13.678;2023-08-06T16:11:32;99883.22;;;21.31;55.66
30073;BME280;16897;52.422;13.678;2023-08-06T16:15:33;99886.84;;;21.30;55.38
30073;BME280;16897;52.422;13.678;2023-08-06T16:19:35;99894.16;;;21.28;55.57
30073;BME280;16897;52.422;13.678;2023-08-06T16:23:37;99840.06;;;20.97;55.63
30073;BME280;16897;52.422;13.678;2023-08-06T16:27:40;99864.06;;;21.12;55.45
30073;BME280;16897;52.422;13.678;2023-08-06T16:31:41;99857.41;;;21.08;55.53
30073;BME280;16897;52.422;13.678;2023-08-06T16:35:43;99814.97;;;20.77;55.83
30073;BME280;16897;52.422;13.678;2023-08-06T16:39:45;99821.75;;;20.80;55.62
30073;BME280;16897;52.422;13.678;2023-08-06T16:43:47;99855.94;;;21.06;55.78
30073;BME280;16897;52.422;13.678;2023-08-06T16:47:48;99839.59;;;20.94;55.49
30073;BME280;16897;52.422;13.678;2023-08-06T16:51:50;99827.97;;;20.95;55.60
30073;BME280;16897;52.422;13.678;2023-08-06T16:55:52;99838.88;;;21.00;55.76
30073;BME280;16897;52.422;13.678;2023-08-06T16:59:58;99817.88;;;20.90;55.49
30073;BME280;16897;52.422;13.678;2023-08-06T17:04:00;99815.22;;;20.90;55.61
30073;BME280;16897;52.422;13.678;2023-08-06T17:08:01;99832.09;;;20.97;55.51
30073;BME280;16897;52.422;13.678;2023-08-06T17:12:04;99827.44;;;20.99;56.08
30073;BME280;16897;52.422;13.678;2023-08-06T17:16:06;99873.50;;;21.15;55.64
30073;BME280;16897;52.422;13.678;2023-08-06T17:20:07;99826.72;;;20.83;55.85
30073;BME280;16897;52.422;13.678;2023-08-06T17:24:09;99840.25;;;20.96;55.84
30073;BME280;16897;52.422;13.678;2023-08-06T17:28:12;99821.75;;;20.80;55.76
30073;BME280;16897;52.422;13.678;2023-08-06T17:32:14;99858.47;;;20.99;55.60
30073;BME280;16897;52.422;13.678;2023-08-06T17:36:15;99864.44;;;21.01;55.64
30073;BME280;16897;52.422;13.678;2023-08-06T17:40:17;99853.88;;;20.93;55.56
30073;BME280;16897;52.422;13.678;2023-08-06T17:44:18;99834.03;;;20.72;55.82
30073;BME280;16897;52.422;13.678;2023-08-06T17:48:20;99862.69;;;20.85;55.57
30073;BME280;16897;52.422;13.678;2023-08-06T17:52:22;99842.47;;;20.76;55.91
30073;BME280;16897;52.422;13.678;2023-08-06T17:56:23;99848.47;;;20.70;55.64
30073;BME280;16897;52.422;13.678;2023-08-06T18:00:25;99859.91;;;20.70;55.94
30073;BME280;16897;52.422;13.678;2023-08-06T18:04:26;99855.78;;;20.68;55.98
30073;BME280;16897;52.422;13.678;2023-08-06T18:08:30;99848.66;;;20.60;55.52
30073;BME280;16897;52.422;13.678;2023-08-06T18:12:32;99857.97;;;20.64;55.69
30073;BME280;16897;52.422;13.678;2023-08-06T18:16:36;99849.34;;;20.54;55.52
30073;BME280;16897;52.422;13.678;2023-08-06T18:20:37;99863.28;;;20.56;55.74
30073;BME280;16897;52.422;13.678;2023-08-06T18:24:39;99861.66;;;20.55;55.98
30073;BME280;16897;52.422;13.678;2023-08-06T18:28:40;99853.69;;;20.47;55.84
30073;BME280;16897;52.422;13.678;2023-08-06T18:32:45;99869.59;;;20.55;55.86
30073;BME280;16897;52.422;13.678;2023-08-06T18:36:47;99874.22;;;20.53;55.75
30073;BME280;16897;52.422;13.678;2023-08-06T18:40:49;99874.56;;;20.50;55.90
30073;BME280;16897;52.422;13.678;2023-08-06T18:44:56;99842.44;;;20.28;55.59
30073;BME280;16897;52.422;13.678;2023-08-06T18:48:58;99876.06;;;20.44;55.96
30073;BME280;16897;52.422;13.678;2023-08-06T18:52:59;99858.34;;;20.37;56.04
30073;BME280;16897;52.422;13.678;2023-08-06T18:57:01;99861.34;;;20.33;55.74
30073;BME280;16897;52.422;13.678;2023-08-06T19:01:02;99870.94;;;20.26;55.85
30073;BME280;16897;52.422;13.678;2023-08-06T19:05:07;99856.88;;;20.18;55.63
30073;BME280;16897;52.422;13.678;2023-08-06T19:09:09;99887.19;;;20.31;55.63
30073;BME280;16897;52.422;13.678;2023-08-06T19:13:11;99888.03;;;20.24;55.80
30073;BME280;16897;52.422;13.678;2023-08-06T19:17:12;99902.94;;;20.25;55.76
30073;BME280;16897;52.422;13.678;2023-08-06T19:21:13;99897.97;;;20.14;55.92
30073;BME280;16897;52.422;13.678;2023-08-06T19:25:15;99902.28;;;20.15;55.57
30073;BME280;16897;52.422;13.678;2023-08-06T19:29:16;99901.97;;;20.18;55.64
30073;BME280;16897;52.422;13.678;2023-08-06T19:33:18;99861.88;;;19.88;55.89
30073;BME280;16897;52.422;13.678;2023-08-06T19:37:19;99868.00;;;19.88;55.90
30073;BME280;16897;52.422;13.678;2023-08-06T19:41:24;99889.53;;;19.94;56.14
30073;BME280;16897;52.422;13.678;2023-08-06T19:45:26;99894.16;;;20.00;55.93
30073;BME280;16897;52.422;13.678;2023-08-06T19:49:28;99873.78;;;19.92;55.56
30073;BME280;16897;52.422;13.678;2023-08-06T19:53:30;99889.53;;;19.94;56.09
30073;BME280;16897;52.422;13.678;2023-08-06T19:57:35;99887.03;;;19.92;55.89
30073;BME280;16897;52.422;13.678;2023-08-06T20:01:38;99880.44;;;19.88;55.76
30073;BME280;16897;52.422;13.678;2023-08-06T20:05:39;99882.56;;;19.93;55.87
30073;BME280;16897;52.422;13.678;2023-08-06T20:09:40;99890.38;;;19.94;56.06
30073;BME280;16897;52.422;13.678;2023-08-06T20:13:42;99870.81;;;19.79;55.96
30073;BME280;16897;52.422;13.678;2023-08-06T20:17:44;99848.13;;;19.68;55.68
30073;BME280;16897;52.422;13.678;2023-08-06T20:21:45;99876.44;;;19.92;55.88
30073;BME280;16897;52.422;13.678;2023-08-06T20:25:47;99877.59;;;19.89;55.97
30073;BME280;16897;52.422;13.678;2023-08-06T20:29:50;99870.47;;;19.82;55.80
30073;BME280;16897;52.422;13.678;2023-08-06T20:33:51;99843.94;;;19.65;56.00
30073;BME280;16897;52.422;13.678;2023-08-06T20:37:52;99876.94;;;19.79;56.21
30073;BME280;16897;52.422;13.678;2023-08-06T20:41:54;99880.59;;;19.78;56.03
30073;BME280;16897;52.422;13.678;2023-08-06T20:45:57;99866.34;;;19.71;56.09
30073;BME280;16897;52.422;13.678;2023-08-06T20:50:06;99873.66;;;19.77;55.93
30073;BME280;16897;52.422;13.678;2023-08-06T20:54:08;99868.16;;;19.71;55.80
30073;BME280;16897;52.422;13.678;2023-08-06T20:58:09;99849.91;;;19.59;56.22
30073;BME280;16897;52.422;13.678;2023-08-06T21:02:11;99853.38;;;19.60;55.83
30073;BME280;16897;52.422;13.678;2023-08-06T21:06:13;99888.38;;;19.80;55.86
30073;BME280;16897;52.422;13.678;2023-08-06T21:10:15;99888.53;;;19.78;56.10